createdAt,value
2023-01-27T00:29:42.974Z,0
2023-01-27T00:30:23.222Z,0
2023-01-27T00:31:03.871Z,0
2023-01-27T00:31:44.272Z,0
2023-01-27T00:32:24.761Z,0
2023-01-27T00:33:05.234Z,0
2023-01-27T00:33:45.720Z,0
2023-01-27T00:34:26.234Z,0
2023-01-27T00:35:06.758Z,0
2023-01-27T00:35:47.197Z,0
2023-01-27T00:43:12.600Z,0
2023-01-27T00:43:53.126Z,0
2023-01-27T00:44:33.666Z,0
2023-01-27T00:45:14.133Z,0
2023-01-27T00:45:54.635Z,0
2023-01-27T00:46:35.250Z,0
2023-01-27T00:47:15.617Z,0
2023-01-27T00:47:56.091Z,0
2023-01-27T00:48:36.644Z,0
2023-01-27T00:49:17.198Z,0
2023-01-27T00:49:57.648Z,0
2023-01-27T00:56:42.766Z,0
2023-01-27T00:57:23.294Z,0
2023-01-27T00:58:03.797Z,0
2023-01-27T00:58:44.280Z,0
2023-01-27T00:59:24.833Z,0
2023-01-27T01:00:05.299Z,0
2023-01-27T01:00:45.869Z,0
2023-01-27T01:01:26.314Z,0
2023-01-27T01:02:06.892Z,0
2023-01-27T01:02:47.422Z,0
2023-01-27T01:11:10.215Z,0
2023-01-27T01:11:50.807Z,0
2023-01-27T01:12:31.331Z,0
2023-01-27T01:13:11.918Z,0
2023-01-27T01:13:54.368Z,0
2023-01-27T01:14:32.956Z,0
2023-01-27T01:15:13.391Z,0
2023-01-27T01:15:53.912Z,0
2023-01-27T01:17:14.861Z,0
2023-01-27T01:24:00.066Z,0
2023-01-27T01:24:40.436Z,0
2023-01-27T01:25:20.940Z,0
2023-01-27T01:26:01.433Z,0
2023-01-27T01:26:41.987Z,0
2023-01-27T01:27:22.460Z,0
2023-01-27T01:28:03.005Z,0
2023-01-27T01:28:43.482Z,0
2023-01-27T01:29:23.965Z,0
2023-01-27T01:30:04.519Z,0
2023-01-27T01:30:45.107Z,0
2023-01-27T01:37:30.019Z,0
2023-01-27T01:38:10.497Z,0
2023-01-27T01:40:25.555Z,0
2023-01-27T01:41:03.771Z,0
2023-01-27T01:41:44.234Z,0
2023-01-27T01:42:24.686Z,0
2023-01-27T01:43:05.165Z,0
2023-01-27T01:43:45.709Z,0
2023-01-27T01:45:06.650Z,0
2023-01-27T01:45:47.113Z,0
2023-01-27T01:46:27.652Z,0
2023-01-27T01:53:53.214Z,0
2023-01-27T01:54:33.712Z,0
2023-01-27T01:55:14.437Z,0
2023-01-27T01:55:54.753Z,0
2023-01-27T01:56:35.315Z,0
2023-01-27T01:57:15.827Z,0
2023-01-27T01:57:56.325Z,0
2023-01-27T01:58:36.807Z,0
2023-01-27T01:59:17.311Z,0
2023-01-27T01:59:57.786Z,0
2023-01-27T02:00:38.318Z,0
2023-01-27T02:07:23.268Z,0
2023-01-27T02:08:03.760Z,0
2023-01-27T02:08:44.302Z,0
2023-01-27T02:09:24.768Z,0
2023-01-27T02:10:06.230Z,0
2023-01-27T02:10:46.698Z,0
2023-01-27T02:11:27.212Z,0
2023-01-27T02:12:48.177Z,0
2023-01-27T02:19:33.066Z,0
2023-01-27T02:20:13.591Z,0
2023-01-27T02:20:54.093Z,0
2023-01-27T02:21:34.581Z,0
2023-01-27T02:22:15.072Z,0
2023-01-27T02:22:55.523Z,0
2023-01-27T02:23:36.041Z,0
2023-01-27T02:24:16.609Z,0
2023-01-27T02:25:37.546Z,0
2023-01-27T02:26:18.053Z,0
2023-01-27T02:33:02.958Z,0
2023-01-27T02:33:43.546Z,0
2023-01-27T02:34:23.906Z,0
2023-01-27T02:35:04.392Z,0
2023-01-27T02:35:44.842Z,0
2023-01-27T02:36:25.335Z,0
2023-01-27T02:37:05.840Z,0
2023-01-27T02:37:46.358Z,0
2023-01-27T02:38:26.815Z,0
2023-01-27T02:39:07.354Z,0
2023-01-27T02:39:47.829Z,0
2023-01-27T02:47:13.289Z,0
2023-01-27T02:47:53.781Z,0
2023-01-27T02:48:35.117Z,0
2023-01-27T02:49:15.611Z,0
2023-01-27T02:50:36.608Z,0
2023-01-27T02:51:17.109Z,0
2023-01-27T02:51:57.611Z,0
2023-01-27T02:56:37.275Z,0
2023-01-27T02:57:17.817Z,0
2023-01-27T02:57:58.342Z,0
2023-01-27T02:58:39.593Z,0
2023-01-27T02:59:20.083Z,0
2023-01-27T03:00:00.565Z,0
2023-01-27T03:00:41.134Z,0
2023-01-27T03:01:21.638Z,0
2023-01-27T03:02:02.065Z,0
2023-01-27T03:08:07.292Z,0
2023-01-27T03:08:47.763Z,0
2023-01-27T03:09:28.287Z,0
2023-01-27T03:10:08.819Z,0
2023-01-27T03:10:49.375Z,0
2023-01-27T03:11:29.853Z,0
2023-01-27T03:12:10.353Z,0
2023-01-27T03:12:50.875Z,0
2023-01-27T03:13:31.383Z,0
2023-01-27T03:16:45.046Z,0
2023-01-27T03:17:25.511Z,0
2023-01-27T03:18:05.978Z,0
2023-01-27T03:18:46.485Z,0
2023-01-27T03:19:27.016Z,0
2023-01-27T03:20:07.528Z,0
2023-01-27T03:20:48.045Z,0
2023-01-27T03:21:28.563Z,0
2023-01-27T03:22:09.113Z,0
2023-01-27T03:22:49.604Z,0
2023-01-27T03:31:04.048Z,0
2023-01-27T03:31:45.965Z,0
2023-01-27T03:32:25.043Z,0
2023-01-27T03:33:06.640Z,0
2023-01-27T03:33:47.162Z,0
2023-01-27T03:34:27.600Z,0
2023-01-27T03:35:08.100Z,0
2023-01-27T03:35:48.741Z,0
2023-01-27T03:36:29.102Z,0
2023-01-27T03:37:09.593Z,0
2023-01-27T03:37:50.084Z,0
2023-01-27T03:38:30.581Z,0
2023-01-27T03:45:15.563Z,0
2023-01-27T03:45:55.975Z,0
2023-01-27T03:46:36.967Z,0
2023-01-27T03:47:17.445Z,0
2023-01-27T03:47:57.942Z,0
2023-01-27T03:48:39.098Z,0
2023-01-27T03:49:19.563Z,0
2023-01-27T03:50:00.153Z,0
2023-01-27T03:50:40.581Z,0
2023-01-27T03:57:25.451Z,0
2023-01-27T03:58:05.924Z,0
2023-01-27T03:58:46.987Z,0
2023-01-27T03:59:27.576Z,0
2023-01-27T04:00:08.046Z,0
2023-01-27T04:00:48.564Z,0
2023-01-27T04:01:29.083Z,0
2023-01-27T04:02:09.537Z,0
2023-01-27T04:02:50.941Z,0
2023-01-27T04:03:30.526Z,0
2023-01-27T04:10:55.892Z,0
2023-01-27T04:11:36.377Z,0
2023-01-27T04:12:16.836Z,0
2023-01-27T04:12:57.311Z,0
2023-01-27T04:13:37.774Z,0
2023-01-27T04:14:18.252Z,0
2023-01-27T04:14:58.732Z,0
2023-01-27T04:15:39.289Z,0
2023-01-27T04:16:19.721Z,0
2023-01-27T04:17:00.143Z,0
2023-01-27T04:17:40.600Z,0
2023-01-27T04:24:25.756Z,0
2023-01-27T04:25:06.125Z,0
2023-01-27T04:25:46.586Z,0
2023-01-27T04:26:27.074Z,0
2023-01-27T04:27:48.098Z,0
2023-01-27T04:28:41.890Z,0
2023-01-27T04:29:09.068Z,0
2023-01-27T04:29:49.567Z,0
2023-01-27T04:30:30.064Z,0
2023-01-27T04:31:10.708Z,0
2023-01-27T04:37:55.560Z,0
2023-01-27T04:38:36.025Z,0
2023-01-27T04:39:16.525Z,0
2023-01-27T04:39:57.026Z,0
2023-01-27T04:40:37.513Z,0
2023-01-27T04:41:17.998Z,0
2023-01-27T04:41:58.506Z,0
2023-01-27T04:42:38.979Z,0
2023-01-27T04:43:19.485Z,0
2023-01-27T04:43:59.956Z,0
2023-01-27T04:44:40.507Z,0
2023-01-27T04:51:25.490Z,0
2023-01-27T04:52:06.040Z,0
2023-01-27T04:52:46.536Z,0
2023-01-27T04:53:27.052Z,0
2023-01-27T04:54:07.524Z,0
2023-01-27T04:54:48.063Z,0
2023-01-27T04:55:28.635Z,0
2023-01-27T04:56:09.074Z,0
2023-01-27T04:56:49.619Z,0
2023-01-27T04:57:30.089Z,0
2023-01-27T04:58:10.584Z,0
2023-01-27T05:04:55.605Z,0
2023-01-27T05:05:36.051Z,0
2023-01-27T05:06:16.561Z,0
2023-01-27T05:06:57.080Z,0
2023-01-27T05:07:37.607Z,0
2023-01-27T05:08:18.059Z,0
2023-01-27T05:08:58.586Z,0
2023-01-27T05:09:39.099Z,0
2023-01-27T05:10:19.635Z,0
2023-01-27T05:11:00.122Z,0
2023-01-27T05:11:40.705Z,0
2023-01-27T05:17:05.837Z,0
2023-01-27T05:17:46.441Z,0
2023-01-27T05:18:26.931Z,0
2023-01-27T05:19:07.420Z,0
2023-01-27T05:20:28.550Z,0
2023-01-27T05:21:09.077Z,0
2023-01-27T05:21:49.650Z,0
2023-01-27T05:22:30.211Z,0
2023-01-27T05:23:10.790Z,0
2023-01-27T05:29:15.611Z,0
2023-01-27T05:29:56.153Z,0
2023-01-27T05:30:36.659Z,0
2023-01-27T05:31:17.288Z,0
2023-01-27T05:31:57.756Z,0
2023-01-27T05:32:38.209Z,0
2023-01-27T05:33:18.717Z,0
2023-01-27T05:33:59.229Z,0
2023-01-27T05:34:39.789Z,0
2023-01-27T05:35:20.251Z,0
2023-01-27T05:36:00.926Z,0
2023-01-27T05:41:26.248Z,0
2023-01-27T05:42:06.687Z,0
2023-01-27T05:42:47.217Z,0
2023-01-27T05:43:28.085Z,0
2023-01-27T05:44:08.586Z,0
2023-01-27T05:44:50.504Z,0
2023-01-27T05:45:29.708Z,0
2023-01-27T05:46:10.990Z,0
2023-01-27T05:49:35.516Z,0
2023-01-27T05:50:16.175Z,0
2023-01-27T05:50:56.591Z,0
2023-01-27T05:51:37.179Z,0
2023-01-27T05:52:17.726Z,0
2023-01-27T06:32:30.285Z,0
2023-01-27T06:33:10.496Z,0
2023-01-27T06:33:51.059Z,0
2023-01-27T06:34:31.775Z,0
2023-01-27T06:35:12.529Z,0
2023-01-27T06:35:52.772Z,0
2023-01-27T06:36:33.379Z,0
2023-01-27T06:42:34.332Z,0
2023-01-27T06:43:14.728Z,0
2023-01-27T06:43:55.186Z,0
2023-01-27T06:44:35.726Z,0
2023-01-27T06:45:16.229Z,0
2023-01-27T06:45:56.715Z,0
2023-01-27T06:46:37.340Z,0
2023-01-27T06:47:17.812Z,0
2023-01-27T06:47:58.395Z,0
2023-01-27T06:53:24.162Z,0
2023-01-27T06:54:04.680Z,0
2023-01-27T06:54:45.214Z,0
2023-01-27T06:55:25.737Z,0
2023-01-27T06:56:06.191Z,0
2023-01-27T06:56:46.734Z,4
2023-01-27T06:57:27.273Z,4
2023-01-27T06:58:07.862Z,0
2023-01-27T06:58:48.980Z,0
2023-01-27T07:04:13.991Z,4
2023-01-27T07:04:54.550Z,8
2023-01-27T07:05:35.112Z,8
2023-01-27T07:06:56.166Z,4
2023-01-27T07:07:36.937Z,8
2023-01-27T07:08:17.343Z,8
2023-01-27T07:08:57.779Z,8
2023-01-27T07:09:51.662Z,12
2023-01-27T07:10:18.875Z,12
2023-01-27T07:10:59.339Z,12
2023-01-27T07:11:39.819Z,12
2023-01-27T07:12:20.431Z,12
2023-01-27T07:13:00.989Z,12
2023-01-27T07:15:46.976Z,12
2023-01-27T07:16:28.269Z,16
2023-01-27T07:17:08.765Z,16
2023-01-27T07:17:49.397Z,20
2023-01-27T07:18:29.948Z,20
2023-01-27T07:19:10.478Z,20
2023-01-27T07:19:50.938Z,20
2023-01-27T07:23:16.209Z,20
2023-01-27T07:23:56.738Z,28
2023-01-27T07:24:37.329Z,28
2023-01-27T07:25:17.839Z,36
2023-01-27T07:26:00.843Z,40
2023-01-27T07:28:18.169Z,44
2023-01-27T07:28:58.856Z,44
2023-01-27T07:29:40.233Z,44
2023-01-27T07:30:21.117Z,48
2023-01-27T07:31:01.800Z,48
2023-01-27T07:31:42.577Z,48
2023-01-27T07:32:22.947Z,52
2023-01-27T07:36:28.089Z,64
2023-01-27T07:37:08.871Z,68
2023-01-27T07:37:49.300Z,76
2023-01-27T07:38:30.060Z,76
2023-01-27T07:39:10.479Z,80
2023-01-27T07:39:51.657Z,84
2023-01-27T07:40:32.576Z,88
2023-01-27T07:45:17.976Z,132
2023-01-27T07:45:58.487Z,136
2023-01-27T07:46:39.194Z,144
2023-01-27T07:47:19.966Z,144
2023-01-27T07:48:00.443Z,144
2023-01-27T07:49:22.804Z,140
2023-01-27T07:52:47.855Z,116
2023-01-27T07:53:28.422Z,96
2023-01-27T07:54:09.144Z,96
2023-01-27T07:54:49.603Z,96
2023-01-27T07:55:30.167Z,96
2023-01-27T07:56:10.668Z,92
2023-01-27T07:56:51.379Z,92
2023-01-27T07:57:32.037Z,96
2023-01-27T07:58:12.562Z,100
2023-01-27T08:04:18.203Z,88
2023-01-27T08:04:58.675Z,96
2023-01-27T08:05:39.263Z,100
2023-01-27T08:07:53.105Z,112
2023-01-27T08:08:33.485Z,124
2023-01-27T08:09:13.957Z,124
2023-01-27T08:09:54.518Z,144
2023-01-27T08:10:34.985Z,152
2023-01-27T08:11:15.521Z,148
2023-01-27T08:11:56.007Z,172
2023-01-27T08:12:36.541Z,204
2023-01-27T08:13:17.044Z,228
2023-01-27T08:20:02.072Z,352
2023-01-27T08:20:43.959Z,376
2023-01-27T08:21:23.078Z,396
2023-01-27T08:22:03.584Z,412
2023-01-27T08:22:44.081Z,468
2023-01-27T08:23:24.595Z,488
2023-01-27T08:24:05.235Z,520
2023-01-27T08:24:45.609Z,532
2023-01-27T08:25:26.141Z,532
2023-01-27T08:26:06.673Z,556
2023-01-27T08:32:52.015Z,356
2023-01-27T08:33:32.534Z,344
2023-01-27T08:34:13.015Z,332
2023-01-27T08:34:53.575Z,328
2023-01-27T08:35:34.126Z,316
2023-01-27T08:36:14.626Z,288
2023-01-27T08:36:55.141Z,280
2023-01-27T08:37:35.672Z,264
2023-01-27T08:38:16.243Z,264
2023-01-27T08:38:56.728Z,264
2023-01-27T08:45:41.893Z,268
2023-01-27T08:47:02.902Z,304
2023-01-27T08:47:43.513Z,304
2023-01-27T08:48:23.960Z,320
2023-01-27T08:49:04.467Z,320
2023-01-27T08:49:44.954Z,288
2023-01-27T08:50:25.486Z,288
2023-01-27T08:51:05.985Z,268
2023-01-27T08:51:46.498Z,256
2023-01-27T08:52:26.941Z,264
2023-01-27T08:57:51.938Z,388
2023-01-27T08:58:32.469Z,416
2023-01-27T08:59:12.987Z,388
2023-01-27T08:59:53.615Z,408
2023-01-27T09:00:34.173Z,364
2023-01-27T09:01:14.771Z,372
2023-01-27T09:01:55.322Z,444
2023-01-27T09:02:35.914Z,564
2023-01-27T09:03:16.402Z,488
2023-01-27T09:03:56.950Z,528
2023-01-27T09:10:13.518Z,552
2023-01-27T09:10:42.267Z,580
2023-01-27T09:11:22.856Z,508
2023-01-27T09:12:03.433Z,500
2023-01-27T09:12:44.425Z,544
2023-01-27T09:13:25.005Z,568
2023-01-27T09:14:06.557Z,616
2023-01-27T09:16:44.907Z,612
2023-01-27T09:17:25.555Z,632
2023-01-27T09:18:06.806Z,716
2023-01-27T09:18:46.626Z,768
2023-01-27T09:19:27.103Z,664
2023-01-27T09:22:47.035Z,660
2023-01-27T09:23:27.672Z,736
2023-01-27T09:24:08.199Z,724
2023-01-27T09:24:48.745Z,672
2023-01-27T09:25:29.436Z,684
2023-01-27T09:26:09.966Z,856
2023-01-27T09:26:50.541Z,796
2023-01-27T09:27:39.030Z,764
2023-01-27T09:31:19.593Z,1064
2023-01-27T09:32:02.688Z,1124
2023-01-27T09:32:43.320Z,1192
2023-01-27T09:33:23.849Z,1252
2023-01-27T09:36:06.373Z,1036
2023-01-27T09:36:46.968Z,980
2023-01-27T09:37:28.064Z,1004
2023-01-27T09:40:42.857Z,804
2023-01-27T09:41:23.973Z,764
2023-01-27T09:42:05.591Z,736
2023-01-27T09:42:46.040Z,704
2023-01-27T09:43:26.567Z,724
2023-01-27T09:44:07.046Z,672
2023-01-27T09:44:47.632Z,672
2023-01-27T09:49:32.612Z,752
2023-01-27T09:50:13.465Z,744
2023-01-27T09:50:53.747Z,716
2023-01-27T09:54:12.949Z,588
2023-01-27T09:54:53.478Z,596
2023-01-27T09:55:34.017Z,664
2023-01-27T09:56:14.547Z,720
2023-01-27T09:56:55.053Z,740
2023-01-27T09:57:36.446Z,724
2023-01-27T09:58:57.520Z,640
2023-01-27T10:04:34.906Z,608
2023-01-27T10:05:15.878Z,668
2023-01-27T10:05:56.974Z,612
2023-01-27T10:06:39.178Z,640
2023-01-27T10:08:42.516Z,896
2023-01-27T10:09:23.667Z,932
2023-01-27T10:10:04.723Z,904
2023-01-27T10:10:45.736Z,968
2023-01-27T10:11:26.858Z,980
2023-01-27T10:14:12.583Z,948
2023-01-27T10:14:53.630Z,884
2023-01-27T10:15:34.785Z,836
2023-01-27T10:18:53.881Z,920
2023-01-27T10:19:34.659Z,996
2023-01-27T10:20:15.798Z,1048
2023-01-27T10:20:56.917Z,1044
2023-01-27T10:21:37.968Z,1036
2023-01-27T10:22:19.868Z,932
2023-01-27T10:27:03.697Z,608
2023-01-27T10:27:45.303Z,620
2023-01-27T10:28:25.803Z,600
2023-01-27T10:29:06.517Z,560
2023-01-27T10:29:47.115Z,560
2023-01-27T10:30:28.290Z,576
2023-01-27T10:31:08.471Z,580
2023-01-27T10:31:48.972Z,556
2023-01-27T10:37:54.658Z,564
2023-01-27T10:38:35.119Z,556
2023-01-27T10:39:16.356Z,620
2023-01-27T10:39:56.942Z,632
2023-01-27T10:40:37.514Z,612
2023-01-27T10:41:18.052Z,624
2023-01-27T10:41:59.430Z,556
2023-01-27T10:46:04.288Z,464
2023-01-27T10:46:44.830Z,484
2023-01-27T10:47:27.748Z,496
2023-01-27T10:48:08.859Z,460
2023-01-27T10:54:15.037Z,424
2023-01-27T10:54:56.446Z,416
2023-01-27T10:55:37.084Z,436
2023-01-27T10:56:17.643Z,440
2023-01-27T10:57:38.742Z,428
2023-01-27T10:58:25.878Z,392
2023-01-27T10:59:06.379Z,408
2023-01-27T11:00:00.741Z,412
2023-01-27T11:00:51.678Z,404
2023-01-27T11:01:24.164Z,420
2023-01-27T11:01:48.705Z,384
2023-01-27T11:07:53.706Z,364
2023-01-27T11:08:34.254Z,304
2023-01-27T11:09:14.741Z,276
2023-01-27T11:09:55.235Z,280
2023-01-27T11:10:35.840Z,272
2023-01-27T11:11:16.328Z,276
2023-01-27T11:11:56.822Z,284
2023-01-27T11:12:37.364Z,292
2023-01-27T11:13:17.835Z,324
2023-01-27T11:13:58.367Z,408
2023-01-27T11:14:39.018Z,536
2023-01-27T11:20:03.861Z,552
2023-01-27T11:20:44.390Z,616
2023-01-27T11:21:24.942Z,604
2023-01-27T11:22:08.459Z,616
2023-01-27T11:22:46.006Z,700
2023-01-27T11:23:26.510Z,748
2023-01-27T11:24:07.071Z,732
2023-01-27T11:24:47.571Z,732
2023-01-27T11:25:28.054Z,736
2023-01-27T11:26:08.657Z,796
2023-01-27T11:32:53.756Z,572
2023-01-27T11:33:34.339Z,520
2023-01-27T11:34:14.840Z,512
2023-01-27T11:34:55.338Z,492
2023-01-27T11:35:35.885Z,460
2023-01-27T11:36:16.395Z,424
2023-01-27T11:36:57.868Z,380
2023-01-27T11:37:38.476Z,400
2023-01-27T11:41:43.891Z,436
2023-01-27T11:42:24.476Z,436
2023-01-27T11:43:04.950Z,472
2023-01-27T11:43:45.455Z,552
2023-01-27T11:44:26.006Z,660
2023-01-27T11:45:07.314Z,776
2023-01-27T11:45:47.931Z,724
2023-01-27T11:46:28.428Z,616
2023-01-27T11:47:08.897Z,536
2023-01-27T11:52:33.970Z,504
2023-01-27T11:53:14.496Z,452
2023-01-27T11:53:55.003Z,420
2023-01-27T12:32:57.019Z,584
2023-01-27T12:33:37.463Z,536
2023-01-27T12:34:17.998Z,488
2023-01-27T12:34:58.664Z,504
2023-01-27T12:35:39.283Z,512
2023-01-27T12:36:19.769Z,468
2023-01-27T12:37:00.297Z,408
2023-01-27T12:37:40.816Z,376
2023-01-27T12:38:21.365Z,336
2023-01-27T12:39:01.873Z,284
2023-01-27T12:45:46.985Z,264
2023-01-27T12:46:27.503Z,296
2023-01-27T12:47:08.002Z,284
2023-01-27T12:47:48.447Z,272
2023-01-27T12:48:28.990Z,272
2023-01-27T12:49:09.454Z,292
2023-01-27T12:49:50.003Z,332
2023-01-27T12:50:31.699Z,376
2023-01-27T12:55:17.080Z,368
2023-01-27T12:55:58.305Z,368
2023-01-27T12:56:38.875Z,384
2023-01-27T12:57:19.312Z,388
2023-01-27T12:57:59.841Z,372
2023-01-27T12:58:40.365Z,360
2023-01-27T12:59:20.841Z,340
2023-01-27T13:00:01.350Z,332
2023-01-27T13:00:41.886Z,316
2023-01-27T13:07:26.933Z,496
2023-01-27T13:08:07.409Z,492
2023-01-27T13:08:47.946Z,504
2023-01-27T13:09:28.437Z,484
2023-01-27T13:10:08.940Z,420
2023-01-27T13:10:49.475Z,392
2023-01-27T13:11:29.930Z,400
2023-01-27T13:12:10.408Z,376
2023-01-27T13:12:50.883Z,376
2023-01-27T13:13:31.385Z,380
2023-01-27T13:20:57.012Z,384
2023-01-27T13:21:37.526Z,416
2023-01-27T13:22:18.006Z,408
2023-01-27T13:22:58.544Z,384
2023-01-27T13:23:39.040Z,368
2023-01-27T13:24:19.623Z,372
2023-01-27T13:25:00.100Z,372
2023-01-27T13:25:40.583Z,336
2023-01-27T13:26:21.118Z,304
2023-01-27T13:27:01.595Z,284
2023-01-27T13:33:46.643Z,284
2023-01-27T13:34:27.191Z,284
2023-01-27T13:35:07.701Z,276
2023-01-27T13:35:48.243Z,260
2023-01-27T13:36:28.667Z,232
2023-01-27T13:37:09.891Z,212
2023-01-27T13:37:50.387Z,184
2023-01-27T13:38:30.904Z,172
2023-01-27T13:39:11.428Z,168
2023-01-27T13:39:54.799Z,168
2023-01-27T13:46:37.162Z,188
2023-01-27T13:47:17.603Z,196
2023-01-27T13:47:58.051Z,180
2023-01-27T13:48:38.587Z,176
2023-01-27T13:49:19.290Z,168
2023-01-27T13:50:00.037Z,156
2023-01-27T13:50:40.559Z,152
2023-01-27T13:51:21.029Z,152
2023-01-27T13:52:01.693Z,152
2023-01-27T13:56:21.159Z,184
2023-01-27T13:57:01.765Z,196
2023-01-27T13:57:42.181Z,208
2023-01-27T13:58:22.594Z,220
2023-01-27T13:59:03.094Z,228
2023-01-27T13:59:43.617Z,220
2023-01-27T14:00:24.133Z,220
2023-01-27T14:01:04.613Z,216
2023-01-27T14:01:45.315Z,212
2023-01-27T14:02:25.620Z,200
2023-01-27T14:03:06.167Z,172
2023-01-27T14:09:51.428Z,212
2023-01-27T14:10:32.600Z,208
2023-01-27T14:11:12.380Z,216
2023-01-27T14:11:52.868Z,224
2023-01-27T14:12:33.370Z,224
2023-01-27T14:13:13.870Z,212
2023-01-27T14:13:54.349Z,200
2023-01-27T14:14:34.828Z,192
2023-01-27T14:15:15.321Z,184
2023-01-27T14:18:44.211Z,172
2023-01-27T14:19:24.668Z,164
2023-01-27T14:20:05.209Z,172
2023-01-27T14:20:45.706Z,168
2023-01-27T14:21:39.652Z,172
2023-01-27T14:22:06.724Z,172
2023-01-27T14:22:47.248Z,168
2023-01-27T14:23:27.716Z,164
2023-01-27T14:24:08.247Z,160
2023-01-27T14:24:48.782Z,168
2023-01-27T14:25:29.231Z,172
2023-01-27T14:32:14.246Z,256
2023-01-27T14:32:54.782Z,236
2023-01-27T14:33:35.253Z,204
2023-01-27T14:34:15.776Z,196
2023-01-27T14:34:56.302Z,188
2023-01-27T14:35:36.781Z,196
2023-01-27T14:36:17.253Z,204
2023-01-27T14:36:57.778Z,192
2023-01-27T14:37:38.314Z,152
2023-01-27T14:38:18.760Z,144
2023-01-27T14:45:04.389Z,80
2023-01-27T14:45:44.417Z,80
2023-01-27T14:46:24.945Z,76
2023-01-27T14:47:45.928Z,88
2023-01-27T14:48:26.440Z,96
2023-01-27T14:49:06.952Z,108
2023-01-27T14:50:28.038Z,128
2023-01-27T14:51:08.624Z,132
2023-01-27T14:51:49.066Z,144
2023-01-27T14:58:34.119Z,136
2023-01-27T14:59:14.654Z,128
2023-01-27T14:59:55.110Z,120
2023-01-27T15:00:35.648Z,112
2023-01-27T15:01:16.091Z,104
2023-01-27T15:01:56.593Z,104
2023-01-27T15:02:37.079Z,92
2023-01-27T15:03:17.549Z,92
2023-01-27T15:03:58.025Z,80
2023-01-27T15:04:38.539Z,80
2023-01-27T15:05:19.004Z,80
2023-01-27T15:14:43.351Z,64
2023-01-27T15:15:22.709Z,60
2023-01-27T15:16:03.267Z,52
2023-01-27T15:16:43.691Z,48
2023-01-27T15:17:24.179Z,48
2023-01-27T15:18:04.666Z,48
2023-01-27T15:18:45.117Z,44
2023-01-27T15:19:25.653Z,44
2023-01-27T15:20:07.449Z,44
2023-01-27T15:20:46.689Z,40
2023-01-27T15:21:27.362Z,40
2023-01-27T15:28:12.239Z,92
2023-01-27T15:28:52.754Z,96
2023-01-27T15:29:33.204Z,100
2023-01-27T15:30:13.990Z,100
2023-01-27T15:30:54.226Z,100
2023-01-27T15:31:34.767Z,100
2023-01-27T15:32:15.390Z,92
2023-01-27T15:32:56.625Z,84
2023-01-27T15:33:37.192Z,72
2023-01-27T15:39:02.134Z,28
2023-01-27T15:39:44.930Z,28
2023-01-27T15:40:23.106Z,28
2023-01-27T15:41:03.623Z,28
2023-01-27T15:41:44.099Z,28
2023-01-27T15:42:24.622Z,28
2023-01-27T15:43:05.259Z,28
2023-01-27T15:43:45.582Z,28
2023-01-27T15:44:26.080Z,28
2023-01-27T15:45:06.624Z,24
2023-01-27T15:45:47.779Z,24
2023-01-27T15:52:32.108Z,16
2023-01-27T15:53:12.618Z,12
2023-01-27T15:53:53.114Z,16
2023-01-27T15:54:33.657Z,12
2023-01-27T15:55:14.457Z,12
2023-01-27T15:55:54.650Z,12
2023-01-27T15:56:35.153Z,12
2023-01-27T15:57:15.657Z,12
2023-01-27T15:57:56.137Z,12
2023-01-27T15:58:36.643Z,8
2023-01-27T15:59:17.118Z,12
2023-01-27T16:06:02.162Z,8
2023-01-27T16:06:42.613Z,8
2023-01-27T16:07:23.103Z,8
2023-01-27T16:08:03.599Z,8
2023-01-27T16:08:44.119Z,8
2023-01-27T16:09:24.590Z,8
2023-01-27T16:10:05.088Z,12
2023-01-27T16:10:45.615Z,8
2023-01-27T16:11:26.129Z,8
2023-01-27T16:12:06.604Z,8
2023-01-27T16:12:47.135Z,8
2023-01-27T16:19:32.134Z,4
2023-01-27T16:20:12.584Z,4
2023-01-27T16:20:53.090Z,4
2023-01-27T16:21:33.575Z,0
2023-01-27T16:22:14.074Z,0
2023-01-27T16:22:54.551Z,0
2023-01-27T16:23:35.059Z,4
2023-01-27T16:24:15.575Z,4
2023-01-27T16:24:56.057Z,4
2023-01-27T16:25:36.591Z,4
2023-01-27T16:26:17.037Z,4
2023-01-27T16:33:02.175Z,0
2023-01-27T16:33:42.591Z,0
2023-01-27T16:34:23.154Z,0
2023-01-27T16:35:03.579Z,0
2023-01-27T16:35:44.142Z,0
2023-01-27T16:36:24.626Z,0
2023-01-27T16:37:45.632Z,0
2023-01-27T16:38:26.132Z,0
2023-01-27T16:39:06.983Z,0
2023-01-27T16:43:52.709Z,0
2023-01-27T16:44:33.221Z,0
2023-01-27T16:45:13.938Z,0
2023-01-27T16:45:54.228Z,0
2023-01-27T16:46:34.685Z,0
2023-01-27T16:47:16.923Z,0
2023-01-27T16:47:55.677Z,0
2023-01-27T16:48:36.208Z,0
2023-01-27T16:49:16.748Z,0
2023-01-27T16:55:22.266Z,0
2023-01-27T16:56:02.700Z,0
2023-01-27T16:56:43.208Z,0
2023-01-27T16:57:23.679Z,0
2023-01-27T16:58:04.165Z,0
2023-01-27T16:58:47.735Z,0
2023-01-27T16:59:25.170Z,0
2023-01-27T17:00:46.179Z,0
2023-01-27T17:01:26.724Z,0
2023-01-27T17:02:07.177Z,0
2023-01-27T17:08:52.121Z,0
2023-01-27T17:09:32.643Z,0
2023-01-27T17:10:15.059Z,0
2023-01-27T17:10:53.728Z,0
2023-01-27T17:11:34.339Z,0
2023-01-27T17:12:14.776Z,0
2023-01-27T17:12:55.287Z,0
2023-01-27T17:13:35.752Z,0
2023-01-27T17:14:29.783Z,0
2023-01-27T17:14:56.746Z,0
2023-01-27T17:22:22.236Z,0
2023-01-27T17:23:02.761Z,0
2023-01-27T17:23:43.315Z,0
2023-01-27T17:24:23.833Z,0
2023-01-27T17:25:04.273Z,0
2023-01-27T17:25:44.758Z,0
2023-01-27T17:26:25.256Z,0
2023-01-27T17:27:05.773Z,0
2023-01-27T17:27:46.236Z,0
2023-01-27T17:28:26.713Z,0
2023-01-27T17:29:07.270Z,0
2023-01-27T17:35:52.279Z,0
2023-01-27T17:36:32.779Z,0
2023-01-27T17:37:13.266Z,0
2023-01-27T17:37:53.792Z,0
2023-01-27T17:38:34.322Z,0
2023-01-27T17:39:14.806Z,0
2023-01-27T17:39:55.350Z,0
2023-01-27T17:40:35.800Z,0
2023-01-27T17:41:16.347Z,0
2023-01-27T17:41:56.878Z,0
2023-01-27T17:48:02.098Z,0
2023-01-27T17:48:42.501Z,0
2023-01-27T17:49:23.022Z,0
2023-01-27T17:50:03.564Z,0
2023-01-27T17:50:44.263Z,0
2023-01-27T17:52:05.170Z,0
2023-01-27T17:52:52.296Z,0
2023-01-27T18:34:46.797Z,0
2023-01-27T18:35:27.704Z,0
2023-01-27T18:37:32.313Z,0
2023-01-27T18:38:13.274Z,0
2023-01-27T18:38:54.402Z,0
2023-01-27T18:41:28.064Z,0
2023-01-27T18:42:08.446Z,0
2023-01-27T18:42:48.996Z,0
2023-01-27T18:43:29.590Z,0
2023-01-27T18:44:10.088Z,0
2023-01-27T18:44:50.554Z,0
2023-01-27T18:45:31.059Z,0
2023-01-27T18:46:11.539Z,0
2023-01-27T18:46:52.089Z,0
2023-01-27T18:47:32.511Z,0
2023-01-27T18:54:58.012Z,0
2023-01-27T18:55:38.466Z,0
2023-01-27T18:56:18.963Z,0
2023-01-27T18:56:59.458Z,0
2023-01-27T18:57:39.931Z,0
2023-01-27T18:58:20.437Z,0
2023-01-27T18:59:00.954Z,0
2023-01-27T18:59:41.445Z,0
2023-01-27T19:00:21.936Z,0
2023-01-27T19:01:02.510Z,0
2023-01-27T19:01:42.998Z,0
2023-01-27T19:08:27.830Z,0
2023-01-27T19:09:08.266Z,0
2023-01-27T19:09:48.785Z,0
2023-01-27T19:10:29.335Z,0
2023-01-27T19:11:09.871Z,0
2023-01-27T19:11:50.302Z,0
2023-01-27T19:12:30.807Z,0
2023-01-27T19:13:11.291Z,0
2023-01-27T19:13:51.801Z,0
2023-01-27T19:14:32.344Z,0
2023-01-27T19:21:57.820Z,0
2023-01-27T19:22:38.311Z,0
2023-01-27T19:23:18.808Z,0
2023-01-27T19:23:59.321Z,0
2023-01-27T19:24:39.821Z,0
2023-01-27T19:25:20.321Z,0
2023-01-27T19:26:00.798Z,0
2023-01-27T19:26:41.285Z,0
2023-01-27T19:27:21.793Z,0
2023-01-27T19:28:02.280Z,0
2023-01-27T19:28:42.809Z,0
2023-01-27T19:35:27.673Z,0
2023-01-27T19:36:08.174Z,0
2023-01-27T19:36:48.679Z,0
2023-01-27T19:37:29.159Z,0
2023-01-27T19:38:09.629Z,0
2023-01-27T19:38:50.222Z,0
2023-01-27T19:39:30.662Z,0
2023-01-27T19:40:11.216Z,0
2023-01-27T19:40:51.648Z,0
2023-01-27T19:41:32.163Z,0
2023-01-27T19:42:12.676Z,0
2023-01-27T19:49:38.031Z,0
2023-01-27T19:50:18.510Z,0
2023-01-27T19:50:59.015Z,0
2023-01-27T19:51:39.493Z,0
2023-01-27T19:52:20.000Z,0
2023-01-27T19:53:00.456Z,0
2023-01-27T19:53:40.948Z,0
2023-01-27T19:54:21.432Z,0
2023-01-27T19:55:01.892Z,0
2023-01-27T19:55:42.377Z,0
2023-01-27T20:03:07.760Z,0
2023-01-27T20:03:48.212Z,0
2023-01-27T20:04:28.761Z,0
2023-01-27T20:05:09.221Z,0
2023-01-27T20:05:49.683Z,0
2023-01-27T20:06:30.148Z,0
2023-01-27T20:07:10.632Z,0
2023-01-27T20:07:51.137Z,0
2023-01-27T20:09:12.121Z,0
2023-01-27T20:09:52.622Z,0
2023-01-27T20:16:37.640Z,0
2023-01-27T20:17:18.113Z,0
2023-01-27T20:17:58.625Z,0
2023-01-27T20:18:39.137Z,0
2023-01-27T20:19:19.615Z,0
2023-01-27T20:20:00.133Z,0
2023-01-27T20:20:40.585Z,0